Time;durP1;ratioP1;P1;durP2;ratioP2;P2;SDS_P1;SDS_P2;PMS_P1;PMS_P2;Temp;Humidity;BMP_temperature;BMP_pressure;BME280_temperature;BME280_humidity;BME280_pressure;Samples;Min_cycle;Max_cycle;Signal;HPM_P1;HPM_P2
2022/12/02 00:00:49;;;;;;;147.73;40.20;;;4.20;99.90;;;2.93;100.00;97719.44;5112643;28;20403;-73
2022/12/02 00:03:20;;;;;;;164.50;44.70;;;4.20;99.90;;;2.92;100.00;97714.44;5111632;28;20509;-73
2022/12/02 00:05:49;;;;;;;139.95;39.22;;;4.10;99.90;;;2.94;100.00;97715.03;5112594;28;20490;-74
2022/12/02 00:08:21;;;;;;;146.70;40.05;;;4.10;99.90;;;2.95;100.00;97703.56;5112402;28;20423;-74
2022/12/02 00:10:48;;;;;;;156.73;42.60;;;4.20;99.90;;;2.94;100.00;97709.78;5112459;28;20524;-74
2022/12/02 00:13:21;;;;;;;136.38;41.25;;;4.20;99.90;;;2.94;100.00;97702.75;5110304;28;20518;-73
2022/12/02 00:15:54;;;;;;;146.57;41.03;;;4.20;99.90;;;2.95;100.00;97703.56;5103159;28;20424;-74
2022/12/02 00:18:20;;;;;;;174.30;45.63;;;4.20;99.90;;;2.93;100.00;97697.75;5103712;28;20448;-74
2022/12/02 00:20:46;;;;;;;153.60;41.47;;;4.20;99.90;;;2.92;100.00;97699.56;5100238;28;20401;-73
2022/12/02 00:23:12;;;;;;;155.85;40.40;;;4.10;99.90;;;2.93;100.00;97697.75;5098321;28;20412;-74
2022/12/02 00:25:39;;;;;;;136.88;40.22;;;4.10;99.90;;;2.92;100.00;97696.94;5111818;28;20858;-74
2022/12/02 00:28:05;;;;;;;139.30;38.40;;;4.20;99.90;;;2.93;100.00;97689.91;5112097;28;20391;-74
2022/12/02 00:30:31;;;;;;;153.83;42.00;;;4.10;99.90;;;2.92;100.00;97696.13;5112057;28;20889;-73
2022/12/02 00:32:59;;;;;;;146.13;41.55;;;4.10;99.90;;;2.94;100.00;97691.50;5111143;28;20955;-74
2022/12/02 00:35:25;;;;;;;161.23;43.17;;;4.20;99.90;;;2.95;100.00;97691.31;5111955;28;20926;-73
2022/12/02 00:37:51;;;;;;;156.25;44.45;;;4.20;99.90;;;2.94;100.00;97694.91;5112048;28;20392;-74
2022/12/02 00:40:18;;;;;;;152.98;42.25;;;4.20;99.90;;;2.92;100.00;97688.28;5111810;28;20390;-74
2022/12/02 00:42:43;;;;;;;143.52;40.47;;;4.10;99.90;;;2.90;100.00;97683.25;5111092;28;20417;-74
2022/12/02 00:47:55;;;;;;;150.87;42.43;;;4.20;99.90;;;2.93;100.00;97676.84;5111834;28;20400;-74
2022/12/02 00:50:23;;;;;;;145.07;40.30;;;4.20;99.90;;;2.92;100.00;97685.69;5111678;28;20396;-73
2022/12/02 00:52:49;;;;;;;146.95;40.00;;;4.10;99.90;;;2.92;100.00;97676.03;5110589;28;20400;-73
2022/12/02 00:55:16;;;;;;;157.65;43.30;;;4.10;99.90;;;2.91;100.00;97671.78;5111744;28;20485;-73
2022/12/02 00:57:42;;;;;;;164.40;44.67;;;4.10;99.90;;;2.92;100.00;97675.22;5111990;28;20465;-74
2022/12/02 01:00:09;;;;;;;160.30;44.95;;;4.10;99.90;;;2.92;100.00;97675.22;5111032;28;20917;-73
2022/12/02 01:02:36;;;;;;;164.82;43.40;;;4.10;99.90;;;2.90;100.00;97675.41;5115005;28;20443;-74
2022/12/02 01:05:02;;;;;;;146.23;40.40;;;4.10;99.90;;;2.91;100.00;97666.56;5112662;28;20866;-73
2022/12/02 01:07:29;;;;;;;157.98;42.42;;;4.10;99.90;;;2.92;100.00;97659.53;5110125;28;21090;-74
2022/12/02 01:09:55;;;;;;;169.82;44.28;;;4.10;99.90;;;2.92;100.00;97665.56;5111483;28;20407;-74
2022/12/02 01:12:21;;;;;;;160.83;43.83;;;4.10;99.90;;;2.90;100.00;97662.34;5108791;28;20481;-74
2022/12/02 01:14:47;;;;;;;166.18;45.88;;;4.10;99.90;;;2.90;100.00;97656.28;5108422;28;20762;-73
2022/12/02 01:17:13;;;;;;;176.13;45.70;;;4.10;99.90;;;2.88;100.00;97659.09;5110218;28;20392;-74
2022/12/02 01:19:39;;;;;;;132.20;41.97;;;4.10;99.90;;;2.96;100.00;97658.13;5110296;28;20483;-74
2022/12/02 01:22:05;;;;;;;165.60;45.65;;;4.10;99.90;;;2.92;100.00;97657.72;5110965;28;20400;-73
2022/12/02 01:24:32;;;;;;;156.90;44.90;;;4.10;99.90;;;2.89;100.00;97657.28;5110201;28;20797;-74
2022/12/02 01:26:58;;;;;;;153.50;43.67;;;4.10;99.90;;;2.89;100.00;97659.91;5111108;28;20406;-73
2022/12/02 01:29:24;;;;;;;166.23;43.03;;;4.10;99.90;;;2.86;100.00;97653.25;5111050;28;20392;-74
2022/12/02 01:31:50;;;;;;;163.90;45.38;;;4.10;99.90;;;2.87;100.00;97651.44;5110817;28;20475;-73
2022/12/02 01:34:15;;;;;;;143.85;39.47;;;4.10;99.90;;;2.88;100.00;97653.88;5110161;28;20400;-73
2022/12/02 01:36:41;;;;;;;141.17;40.47;;;4.10;99.90;;;2.90;100.00;97651.88;5110753;28;20407;-73
2022/12/02 01:39:07;;;;;;;149.32;41.25;;;4.10;99.90;;;2.91;100.00;97657.91;5110950;28;20449;-74
2022/12/02 01:41:34;;;;;;;163.68;45.35;;;4.10;99.90;;;2.91;100.00;97650.06;5109380;28;20411;-73
2022/12/02 01:44:00;;;;;;;161.10;43.30;;;4.10;99.90;;;2.90;100.00;97651.06;5109695;28;20402;-73
2022/12/02 01:46:26;;;;;;;152.88;42.40;;;4.10;99.90;;;2.88;100.00;97651.25;5110588;28;20392;-73
2022/12/02 01:48:52;;;;;;;146.73;41.78;;;4.10;99.90;;;2.92;100.00;97651.69;5110678;28;20437;-74
2022/12/02 01:51:18;;;;;;;166.65;44.50;;;4.10;99.90;;;2.90;100.00;97643.22;5110641;28;20851;-73
2022/12/02 01:53:44;;;;;;;170.27;45.58;;;4.10;99.90;;;2.89;100.00;97644.22;5109878;28;20392;-74
2022/12/02 01:56:10;;;;;;;169.93;46.40;;;4.10;99.90;;;2.89;100.00;97637.19;5109070;28;20782;-73
2022/12/02 01:58:38;;;;;;;163.67;43.57;;;4.10;99.90;;;2.89;100.00;97637.19;5110565;28;20486;-73
2022/12/02 02:01:22;;;;;;;182.40;47.28;;;4.10;99.90;;;2.89;100.00;97642.41;5110333;28;20417;-73
2022/12/02 02:03:48;;;;;;;141.63;39.88;;;4.10;99.90;;;2.90;100.00;97630.16;5108907;28;20416;-74
2022/12/02 02:06:14;;;;;;;163.75;43.63;;;4.10;99.90;;;2.91;100.00;97631.78;5110349;28;20483;-73
2022/12/02 02:08:40;;;;;;;179.73;47.90;;;4.10;99.90;;;2.91;100.00;97637.00;5110395;28;20979;-74
2022/12/02 02:11:06;;;;;;;179.60;47.65;;;4.10;99.90;;;2.88;100.00;97635.56;5110099;28;20411;-73
2022/12/02 02:13:32;;;;;;;175.25;46.90;;;4.10;99.90;;;2.86;100.00;97632.34;5108187;28;20397;-74
2022/12/02 02:15:59;;;;;;;159.90;43.97;;;4.10;99.90;;;2.87;100.00;97638.38;5110082;28;20400;-74
2022/12/02 02:18:25;;;;;;;176.07;47.72;;;4.10;99.90;;;2.86;100.00;97631.53;5109169;28;20479;-73
2022/12/02 02:20:54;;;;;;;157.70;44.83;;;4.10;99.90;;;2.85;100.00;97630.75;5110248;28;20392;-73
2022/12/02 02:23:24;;;;;;;171.90;44.80;;;4.10;99.90;;;2.86;100.00;97632.34;5109334;28;20528;-74
2022/12/02 02:25:54;;;;;;;177.48;46.58;;;4.10;99.90;;;2.85;100.00;97628.13;5110294;28;20405;-74
2022/12/02 02:28:22;;;;;;;178.60;46.85;;;4.10;99.90;;;2.88;100.00;97637.38;5110205;28;20403;-73
2022/12/02 02:30:49;;;;;;;171.80;45.97;;;4.10;99.90;;;2.88;100.00;97640.78;5110207;28;20394;-73
2022/12/02 02:33:15;;;;;;;177.25;46.75;;;4.10;99.90;;;2.85;100.00;97632.56;5109425;28;20407;-73
2022/12/02 02:35:42;;;;;;;172.03;46.53;;;4.10;99.90;;;2.89;100.00;97628.53;5109773;28;20457;-74
2022/12/02 02:38:11;;;;;;;179.65;46.67;;;4.10;99.90;;;2.87;100.00;97631.34;5110145;28;20968;-74
2022/12/02 02:40:39;;;;;;;174.50;47.17;;;4.10;99.90;;;2.87;100.00;97626.09;5109967;28;20443;-74
2022/12/02 02:43:05;;;;;;;158.23;42.80;;;4.10;99.90;;;2.86;100.00;97621.88;5109027;28;20412;-74
2022/12/02 02:45:34;;;;;;;165.55;44.03;;;4.10;99.90;;;2.83;100.00;97622.28;5109983;28;20781;-74
2022/12/02 02:48:02;;;;;;;156.10;43.80;;;4.10;99.90;;;2.83;100.00;97616.25;5108694;28;20408;-73
2022/12/02 02:50:29;;;;;;;163.75;43.58;;;4.10;99.90;;;2.84;100.00;97620.47;5109907;28;20431;-74
2022/12/02 02:52:55;;;;;;;170.75;47.30;;;4.00;99.90;;;2.87;100.00;97613.03;5109283;28;20777;-74
2022/12/02 02:55:23;;;;;;;176.13;44.72;;;4.10;99.90;;;2.86;100.00;97614.03;5109830;28;20396;-73
2022/12/02 02:57:51;;;;;;;168.23;45.70;;;4.10;99.90;;;2.87;100.00;97610.44;5108630;28;20896;-73
2022/12/02 03:00:20;;;;;;;163.32;44.72;;;4.10;99.90;;;2.88;100.00;97600.78;5109728;28;20392;-74
2022/12/02 03:02:53;;;;;;;167.98;43.00;;;4.10;99.90;;;2.87;100.00;97607.81;5108686;28;20406;-73
2022/12/02 03:05:20;;;;;;;169.60;44.92;;;4.10;99.90;;;2.88;100.00;97606.81;5109730;28;21026;-74
2022/12/02 03:07:47;;;;;;;148.60;41.90;;;4.10;99.90;;;2.87;100.00;97609.63;5109891;28;20397;-73
2022/12/02 03:10:14;;;;;;;161.37;43.67;;;4.10;99.90;;;2.86;100.00;97608.00;5109797;28;20831;-74
2022/12/02 03:12:40;;;;;;;197.82;49.20;;;4.10;99.90;;;2.86;100.00;97611.41;5109091;28;20869;-73
2022/12/02 03:15:09;;;;;;;162.80;44.33;;;4.10;99.90;;;2.87;100.00;97594.75;5111100;28;20401;-74
2022/12/02 03:17:35;;;;;;;162.65;42.95;;;4.10;99.90;;;2.86;100.00;97600.16;5113575;28;20410;-73
2022/12/02 03:20:02;;;;;;;185.63;46.63;;;4.10;99.90;;;2.83;100.00;97598.75;5113407;28;20431;-73
2022/12/02 03:22:28;;;;;;;159.38;44.88;;;4.10;99.90;;;2.84;100.00;97596.97;5113509;28;20393;-72
2022/12/02 03:24:55;;;;;;;149.73;42.40;;;4.00;99.90;;;2.81;100.00;97595.53;5111356;28;20423;-73
2022/12/02 03:27:21;;;;;;;146.27;41.10;;;4.10;99.90;;;2.82;100.00;97594.53;5113179;28;20396;-73
2022/12/02 03:29:47;;;;;;;188.70;46.28;;;4.00;99.90;;;2.82;100.00;97598.94;5113172;28;20806;-73
2022/12/02 03:32:15;;;;;;;158.20;44.58;;;4.10;99.90;;;2.85;100.00;97601.19;5113345;28;20392;-73
2022/12/02 03:34:41;;;;;;;139.73;41.42;;;4.10;99.90;;;2.88;100.00;97592.94;5112215;28;20442;-73
2022/12/02 03:37:08;;;;;;;169.83;47.43;;;4.10;99.90;;;2.82;100.00;97598.94;5113243;28;20434;-73
2022/12/02 03:39:34;;;;;;;142.77;43.25;;;4.00;99.90;;;2.85;100.00;97599.38;5113232;28;20395;-73
2022/12/02 03:42:00;;;;;;;154.98;42.63;;;4.10;99.90;;;2.81;100.00;97592.91;5112770;28;20396;-73
2022/12/02 03:44:26;;;;;;;144.15;39.17;;;4.00;99.90;;;2.81;100.00;97599.94;5112038;28;20407;-73
2022/12/02 03:46:52;;;;;;;162.40;45.22;;;4.00;99.90;;;2.84;100.00;97597.75;5111665;28;20431;-73
2022/12/02 03:49:19;;;;;;;157.03;46.37;;;4.10;99.90;;;2.90;100.00;97596.97;5113141;28;20445;-73
2022/12/02 03:51:46;;;;;;;150.05;41.97;;;4.10;99.90;;;2.85;100.00;97595.97;5112854;28;20432;-73
2022/12/02 03:54:12;;;;;;;181.90;47.75;;;4.10;99.90;;;2.86;100.00;97593.13;5111973;28;20455;-72
2022/12/02 03:56:41;;;;;;;172.63;45.00;;;4.10;99.90;;;2.82;100.00;97589.31;5112566;28;20400;-73
2022/12/02 03:59:08;;;;;;;162.60;43.80;;;4.10;99.90;;;2.83;100.00;97588.31;5112730;28;20873;-73
2022/12/02 04:01:34;;;;;;;155.30;44.45;;;4.10;99.90;;;2.84;100.00;97587.31;5112566;28;20922;-73
2022/12/02 04:04:00;;;;;;;165.43;45.53;;;4.10;99.90;;;2.83;100.00;97577.03;5111662;28;20502;-73
2022/12/02 04:06:27;;;;;;;163.38;44.00;;;4.10;99.90;;;2.80;100.00;97580.03;5112662;28;20412;-73
2022/12/02 04:08:53;;;;;;;184.07;46.37;;;4.00;99.90;;;2.78;100.00;97577.66;5112667;28;20414;-72
2022/12/02 04:11:19;;;;;;;166.65;45.83;;;4.00;99.90;;;2.82;100.00;97572.81;5112254;28;20889;-73
2022/12/02 04:13:45;;;;;;;172.32;45.53;;;4.00;99.90;;;2.82;100.00;97572.81;5111470;28;20461;-73
2022/12/02 04:16:11;;;;;;;161.98;44.30;;;4.00;99.90;;;2.81;100.00;97571.19;5111987;28;20443;-73
2022/12/02 04:18:36;;;;;;;153.70;40.85;;;4.00;99.90;;;2.80;100.00;97574.81;5112414;28;20411;-73
2022/12/02 04:21:02;;;;;;;188.15;46.95;;;4.00;99.90;;;2.78;100.00;97572.41;5112274;28;20428;-73
2022/12/02 04:23:30;;;;;;;172.93;44.72;;;4.00;99.90;;;2.79;100.00;97573.19;5111434;28;20468;-72
2022/12/02 04:25:56;;;;;;;149.80;40.33;;;4.00;99.90;;;2.78;100.00;97572.41;5111671;28;20413;-73
2022/12/02 04:28:22;;;;;;;154.13;40.90;;;4.00;99.90;;;2.77;100.00;97573.41;5111259;28;20408;-72
2022/12/02 04:30:48;;;;;;;152.50;42.17;;;4.00;99.90;;;2.82;100.00;97564.97;5112021;28;20428;-73
2022/12/02 04:33:14;;;;;;;171.93;44.45;;;4.00;99.90;;;2.81;100.00;97563.34;5112556;28;20405;-72
2022/12/02 04:35:40;;;;;;;178.93;46.38;;;4.00;99.90;;;2.81;100.00;97558.94;5113851;28;20778;-73
2022/12/02 04:38:06;;;;;;;165.85;43.70;;;4.00;99.90;;;2.82;100.00;97557.13;5113316;28;20470;-73
2022/12/02 04:40:33;;;;;;;160.50;44.90;;;4.00;99.90;;;2.81;100.00;97555.50;5111914;28;20408;-73
2022/12/02 04:42:59;;;;;;;161.18;42.33;;;4.00;99.90;;;2.82;100.00;97551.91;5110896;28;20800;-73
2022/12/02 04:45:25;;;;;;;184.03;47.77;;;4.00;99.90;;;2.80;100.00;97546.06;5111774;28;20396;-73
2022/12/02 04:47:51;;;;;;;173.50;45.20;;;4.00;99.90;;;2.77;100.00;97547.28;5111912;28;20442;-73
2022/12/02 04:50:17;;;;;;;156.88;45.05;;;4.00;99.90;;;2.71;100.00;97543.63;5111729;28;20388;-73
2022/12/02 04:52:43;;;;;;;169.32;45.70;;;3.90;99.90;;;2.70;100.00;97549.88;5102100;27;20410;-73
2022/12/02 04:55:09;;;;;;;166.52;45.30;;;4.00;99.90;;;2.72;100.00;97542.63;5111777;27;20402;-73
2022/12/02 04:57:36;;;;;;;158.82;43.95;;;4.00;99.90;;;2.75;100.00;97551.88;5121302;22;20771;-73
2022/12/02 05:00:03;;;;;;;179.43;46.65;;;4.00;99.90;;;2.77;100.00;97549.09;5091218;28;20406;-73
2022/12/02 05:02:29;;;;;;;171.50;43.90;;;4.00;99.90;;;2.78;100.00;97548.09;5087128;28;20405;-73
2022/12/02 05:04:55;;;;;;;188.40;47.75;;;4.00;99.90;;;2.78;100.00;97546.28;5089476;28;20445;-73
2022/12/02 05:07:21;;;;;;;165.85;42.83;;;4.00;99.90;;;2.77;100.00;97543.84;5068969;28;20841;-73
2022/12/02 05:09:47;;;;;;;167.20;45.43;;;4.00;99.90;;;2.81;100.00;97545.06;5069069;28;20437;-73
2022/12/02 05:12:13;;;;;;;182.77;46.45;;;4.00;99.90;;;2.80;100.00;97551.28;5058798;28;20500;-73
2022/12/02 05:14:40;;;;;;;171.15;44.92;;;4.00;99.90;;;2.78;100.00;97542.84;5061274;28;20912;-73
2022/12/02 05:17:06;;;;;;;164.77;45.17;;;4.00;99.90;;;2.79;100.00;97545.25;5056263;28;20409;-74
2022/12/02 05:19:32;;;;;;;172.27;45.70;;;4.00;99.90;;;2.82;100.00;97547.47;5069847;28;20434;-74
2022/12/02 05:21:58;;;;;;;157.00;41.13;;;4.00;99.90;;;2.82;100.00;97544.06;5066042;28;20516;-74
2022/12/02 05:24:24;;;;;;;161.75;42.40;;;4.00;99.90;;;2.81;100.00;97542.44;5067853;28;20430;-73
2022/12/02 05:26:50;;;;;;;166.87;42.17;;;4.00;99.90;;;2.80;100.00;97544.25;5053182;28;20404;-73
2022/12/02 05:29:15;;;;;;;165.95;40.45;;;4.00;99.90;;;2.81;100.00;97540.63;5065731;28;20461;-74
2022/12/02 05:31:43;;;;;;;150.95;40.55;;;4.10;99.90;;;2.81;100.00;97543.25;5066270;28;21257;-73
2022/12/02 05:34:09;;;;;;;196.57;48.72;;;4.00;99.90;;;2.81;100.00;97545.88;5067105;28;20399;-73
2022/12/02 05:36:34;;;;;;;161.65;43.97;;;4.00;99.90;;;2.82;100.00;97544.88;5060896;28;20415;-73
2022/12/02 05:39:00;;;;;;;182.35;46.83;;;4.00;99.90;;;2.82;100.00;97538.84;5061121;28;20419;-73
2022/12/02 05:41:26;;;;;;;163.40;43.55;;;4.00;99.90;;;2.81;100.00;97538.03;5062259;28;20469;-74
2022/12/02 05:43:53;;;;;;;195.63;47.50;;;4.10;99.90;;;2.80;100.00;97536.41;5061806;28;20871;-74
2022/12/02 05:46:20;;;;;;;186.10;47.35;;;4.00;99.90;;;2.81;100.00;97539.81;5065051;28;20417;-74
2022/12/02 05:48:49;;;;;;;185.02;47.42;;;4.00;99.90;;;2.82;100.00;97547.47;5066173;28;20421;-74
2022/12/02 05:51:17;;;;;;;160.13;42.33;;;4.00;99.90;;;2.80;100.00;97546.06;5061723;28;20550;-74
2022/12/02 05:53:46;;;;;;;166.00;42.13;;;4.00;99.90;;;2.81;100.00;97537.22;5066538;28;20463;-74
2022/12/02 05:56:21;;;;;;;181.15;45.03;;;4.00;99.90;;;2.79;100.00;97545.25;5069084;28;20414;-74
2022/12/02 05:58:47;;;;;;;193.18;44.38;;;4.10;99.90;;;2.80;100.00;97543.44;5068350;28;25093;-74
2022/12/02 06:01:20;;;;;;;199.23;47.03;;;4.00;99.90;;;2.80;100.00;97536.41;5069411;28;20777;-74
2022/12/02 06:03:49;;;;;;;197.23;47.42;;;4.00;99.90;;;2.78;100.00;97538.44;5068639;28;25088;-74
2022/12/02 06:06:15;;;;;;;171.73;43.53;;;4.00;99.90;;;2.80;100.00;97546.88;5069787;28;20410;-73
2022/12/02 06:08:41;;;;;;;187.40;45.40;;;4.00;99.90;;;2.78;100.00;97538.44;5069333;28;20502;-75
2022/12/02 06:11:25;;;;;;;197.50;47.63;;;4.00;99.90;;;2.80;100.00;97538.22;5068744;28;20389;-74
2022/12/02 06:13:51;;;;;;;196.75;46.67;;;4.00;99.90;;;2.77;100.00;97538.63;5068646;28;20395;-75
2022/12/02 06:16:23;;;;;;;213.40;48.47;;;4.00;99.90;;;2.75;100.00;97544.03;5067828;28;20804;-73
2022/12/02 06:18:50;;;;;;;161.98;40.90;;;4.00;99.90;;;2.75;100.00;97538.00;5069508;28;20876;-72
2022/12/02 06:21:19;;;;;;;184.93;42.63;;;4.00;99.90;;;2.72;100.00;97533.97;5069196;28;20431;-73
2022/12/02 06:23:48;;;;;;;170.43;40.72;;;4.00;99.90;;;2.71;100.00;97534.97;5059970;28;20951;-72
2022/12/02 06:26:16;;;;;;;176.93;41.83;;;4.00;99.90;;;2.71;100.00;97537.59;5069009;28;20766;-72
2022/12/02 06:28:45;;;;;;;154.05;41.33;;;3.90;99.90;;;2.77;100.00;97536.00;5069146;28;20389;-72
2022/12/02 06:31:16;;;;;;;182.38;43.33;;;3.90;99.90;;;2.69;100.00;97532.59;5069210;28;20402;-72
2022/12/02 06:33:45;;;;;;;174.73;41.75;;;3.90;99.90;;;2.67;100.00;97537.19;5068392;28;20484;-72
2022/12/02 06:36:17;;;;;;;179.93;42.33;;;3.90;99.90;;;2.65;100.00;97531.34;5069394;28;20416;-70
2022/12/02 06:38:48;;;;;;;176.95;41.58;;;3.90;99.90;;;2.65;100.00;97527.94;5069806;28;20421;-70
2022/12/02 06:41:19;;;;;;;194.73;43.17;;;3.90;99.90;;;2.64;100.00;97521.88;5069542;28;20464;-70
2022/12/02 06:45:03;;;;;;;205.77;44.20;;;3.90;99.90;;;2.66;100.00;97526.94;5068574;28;20484;-71
2022/12/02 06:46:33;;;;;;;166.15;41.63;;;3.90;99.90;;;2.66;100.00;97527.75;5067793;28;20925;-70
2022/12/02 06:49:00;;;;;;;154.88;39.58;;;3.90;99.90;;;2.66;100.00;97522.50;5066985;28;20389;-70
2022/12/02 06:51:28;;;;;;;189.93;43.03;;;3.90;99.90;;;2.66;100.00;97524.31;5071466;28;20407;-70
2022/12/02 06:53:54;;;;;;;211.77;42.90;;;3.90;99.90;;;2.65;100.00;97522.69;5066437;28;20407;-70
2022/12/02 06:56:23;;;;;;;209.52;42.60;;;3.90;99.90;;;2.65;100.00;97523.50;5066318;28;20397;-70
2022/12/02 06:58:57;;;;;;;186.98;41.92;;;3.90;99.90;;;2.66;100.00;97522.50;5072948;28;20794;-70
2022/12/02 07:01:29;;;;;;;162.73;38.33;;;3.90;99.90;;;2.66;100.00;97529.53;5073034;28;20395;-72
2022/12/02 07:04:39;;;;;;;243.13;49.30;;;3.90;99.90;;;2.67;100.00;97525.94;5061720;28;21035;-71
2022/12/02 07:07:18;;;;;;;212.88;41.67;;;3.90;99.90;;;2.67;100.00;97528.53;5069171;28;25110;-70
2022/12/02 07:09:47;;;;;;;249.43;46.70;;;3.90;99.90;;;2.67;100.00;97525.94;5072463;28;25170;-72
2022/12/02 07:12:18;;;;;;;169.53;39.80;;;3.90;99.90;;;2.67;100.00;97531.97;5072939;28;20853;-71
2022/12/02 07:14:47;;;;;;;178.77;40.63;;;3.90;99.90;;;2.67;100.00;97536.38;5071840;28;20991;-71
2022/12/02 07:17:21;;;;;;;207.45;44.00;;;3.90;99.90;;;2.68;100.00;97525.75;5072707;28;20406;-70
2022/12/02 07:19:49;;;;;;;213.07;46.28;;;3.90;99.90;;;2.69;100.00;97532.59;5072555;28;25106;-70
2022/12/02 07:22:20;;;;;;;202.77;44.67;;;3.90;99.90;;;2.70;100.00;97528.16;5072529;28;20407;-70
2022/12/02 07:24:54;;;;;;;272.02;54.35;;;3.90;99.90;;;2.70;100.00;97528.97;5071298;28;20513;-70
2022/12/02 07:27:24;;;;;;;222.48;47.50;;;3.90;99.90;;;2.69;100.00;97529.97;5072526;28;20447;-71
2022/12/02 07:29:54;;;;;;;209.32;44.30;;;3.90;99.90;;;2.69;100.00;97535.19;5062037;28;20409;-71
2022/12/02 07:32:20;;;;;;;225.50;47.35;;;3.90;99.90;;;2.72;100.00;97526.13;5069854;28;20484;-71
2022/12/02 07:34:46;;;;;;;220.00;47.45;;;4.00;99.90;;;2.70;100.00;97528.97;5052850;28;20400;-71
2022/12/02 07:37:12;;;;;;;249.60;49.63;;;4.00;99.90;;;2.72;100.00;97533.97;5044779;28;20414;-71
2022/12/02 07:39:39;;;;;;;240.13;48.35;;;3.90;99.90;;;2.72;100.00;97534.78;5064133;28;20399;-71
2022/12/02 07:42:05;;;;;;;250.77;48.90;;;4.00;99.90;;;2.73;100.00;97533.78;5055446;28;20402;-71
2022/12/02 07:44:32;;;;;;;232.32;49.55;;;4.00;99.90;;;2.74;100.00;97531.97;5067946;28;20420;-70
2022/12/02 07:46:58;;;;;;;222.00;47.72;;;4.00;99.90;;;2.77;100.00;97525.56;5059150;28;20415;-70
2022/12/02 07:49:24;;;;;;;283.10;53.17;;;4.00;99.90;;;2.74;100.00;97526.75;5067821;28;20435;-70
2022/12/02 07:51:50;;;;;;;226.88;47.08;;;4.00;99.90;;;2.73;100.00;97528.56;5068016;28;20439;-70
2022/12/02 07:54:16;;;;;;;265.13;49.00;;;4.00;99.90;;;2.75;100.00;97527.56;5070693;28;20492;-70
2022/12/02 07:56:43;;;;;;;275.40;52.72;;;4.00;99.90;;;2.75;100.00;97524.94;5045169;28;20606;-70
2022/12/02 07:59:09;;;;;;;285.05;53.05;;;4.00;99.90;;;2.76;100.00;97521.34;5071454;28;20403;-71
2022/12/02 08:01:35;;;;;;;220.23;48.72;;;4.00;99.90;;;2.79;100.00;97529.56;5043445;28;20410;-68
2022/12/02 08:04:01;;;;;;;238.33;49.97;;;4.00;99.90;;;2.76;100.00;97522.13;5078345;28;20420;-68
2022/12/02 08:06:27;;;;;;;326.10;55.72;;;4.00;99.90;;;2.76;100.00;97526.56;5071662;28;20403;-69
2022/12/02 08:08:53;;;;;;;231.02;49.08;;;4.00;99.90;;;2.75;100.00;97525.75;5055203;28;20486;-70
2022/12/02 08:11:19;;;;;;;287.70;51.67;;;4.00;99.90;;;2.75;100.00;97525.75;5064537;28;21050;-70
2022/12/02 08:13:46;;;;;;;304.17;52.28;;;4.00;99.90;;;2.74;100.00;97531.97;5059738;28;20398;-71
2022/12/02 08:16:15;;;;;;;286.52;51.92;;;4.00;99.90;;;2.76;100.00;97534.41;5068307;28;20415;-72
2022/12/02 08:18:41;;;;;;;234.77;46.92;;;4.00;99.90;;;2.75;100.00;97525.75;5069819;28;20488;-71
2022/12/02 08:21:07;;;;;;;279.73;49.97;;;4.00;99.90;;;2.77;100.00;97531.59;5070969;28;20875;-71
2022/12/02 08:23:33;;;;;;;286.08;50.90;;;4.00;99.90;;;2.78;100.00;97535.00;5067155;28;20441;-71
2022/12/02 08:25:59;;;;;;;259.25;51.70;;;4.00;99.90;;;2.83;100.00;97530.00;5069297;28;20494;-70
2022/12/02 08:28:25;;;;;;;252.98;49.60;;;4.00;99.90;;;2.79;100.00;97531.38;5069474;28;20791;-71
2022/12/02 08:30:53;;;;;;;242.27;50.08;;;4.00;99.90;;;2.81;100.00;97529.38;5064090;28;20435;-70
2022/12/02 08:33:19;;;;;;;238.07;49.67;;;4.00;99.90;;;2.80;100.00;97525.16;5063211;28;20401;-72
2022/12/02 08:35:45;;;;;;;237.30;48.10;;;4.00;99.90;;;2.78;100.00;97522.75;5061832;28;20799;-72
2022/12/02 08:38:11;;;;;;;233.02;46.47;;;4.00;99.90;;;2.78;100.00;97519.34;5056368;28;20488;-71
2022/12/02 08:40:37;;;;;;;262.00;48.60;;;4.00;99.90;;;2.76;100.00;97522.13;5067116;28;20468;-72
2022/12/02 08:43:03;;;;;;;228.18;46.72;;;4.00;99.90;;;2.81;100.00;97518.91;5060547;28;20925;-71
2022/12/02 08:45:29;;;;;;;239.32;45.60;;;4.00;99.90;;;2.77;100.00;97509.88;5070757;28;20440;-69
2022/12/02 08:47:56;;;;;;;319.17;52.08;;;4.00;99.90;;;2.76;100.00;97518.72;5063057;28;20442;-69
2022/12/02 08:50:22;;;;;;;202.38;42.17;;;4.00;99.90;;;2.78;100.00;97516.72;5046974;28;20410;-69
2022/12/02 08:52:48;;;;;;;299.43;56.27;;;4.00;99.90;;;2.77;100.00;97509.88;5066706;28;20776;-70
2022/12/02 08:55:14;;;;;;;245.63;51.20;;;4.00;99.90;;;2.75;100.00;97511.88;5064685;28;20499;-69
2022/12/02 08:57:40;;;;;;;273.70;54.35;;;4.00;99.90;;;2.72;100.00;97505.22;5068759;28;20418;-70
2022/12/02 09:00:10;;;;;;;254.75;50.75;;;3.90;99.90;;;2.67;100.00;97505.84;5068100;28;20411;-71
2022/12/02 09:02:36;;;;;;;231.02;45.63;;;3.90;99.90;;;2.71;100.00;97507.03;5050077;28;20430;-69
2022/12/02 09:05:04;;;;;;;274.75;48.63;;;3.90;99.90;;;2.72;100.00;97502.63;5067334;28;20416;-69
2022/12/02 09:07:30;;;;;;;226.98;44.08;;;4.00;99.90;;;2.73;100.00;97505.03;5062984;28;20401;-69
2022/12/02 09:09:56;;;;;;;188.93;39.30;;;4.00;99.90;;;2.77;100.00;97504.66;5050184;28;21158;-70
2022/12/02 09:12:23;;;;;;;259.08;44.80;;;4.00;99.90;;;2.80;100.00;97505.03;5067183;28;20412;-70
2022/12/02 09:14:49;;;;;;;222.90;42.60;;;4.00;99.90;;;2.83;100.00;97503.84;5068103;28;20446;-70
2022/12/02 09:17:15;;;;;;;233.73;41.65;;;4.10;99.90;;;2.86;100.00;97503.44;5069524;28;20795;-71
2022/12/02 09:19:41;;;;;;;211.13;40.55;;;4.10;99.90;;;2.89;100.00;97503.84;5070156;28;20423;-69
2022/12/02 09:22:08;;;;;;;270.10;44.50;;;4.10;99.90;;;2.90;100.00;97500.25;5067668;28;20493;-71
2022/12/02 09:24:34;;;;;;;198.43;40.58;;;4.10;99.90;;;2.93;100.00;97505.06;5069017;28;20422;-71
2022/12/02 09:27:00;;;;;;;221.60;41.33;;;4.10;99.90;;;2.93;100.00;97501.66;5070071;28;20400;-71
2022/12/02 09:29:26;;;;;;;223.30;44.05;;;4.10;99.90;;;2.94;100.00;97504.06;5070118;28;20443;-69
2022/12/02 09:31:52;;;;;;;202.30;40.75;;;4.20;99.90;;;2.94;100.00;97505.84;5069879;28;20444;-69
2022/12/02 09:34:18;;;;;;;211.68;41.78;;;4.20;99.90;;;2.92;100.00;97507.88;5068808;28;20407;-71
2022/12/02 09:36:44;;;;;;;208.95;41.50;;;4.20;99.90;;;2.91;100.00;97496.63;5069642;28;20777;-70
2022/12/02 09:39:12;;;;;;;224.13;40.60;;;4.10;99.90;;;2.91;100.00;97503.66;5070231;28;20396;-70
2022/12/02 09:41:38;;;;;;;174.68;36.03;;;4.10;99.90;;;2.90;100.00;97504.66;5070011;28;20507;-73
2022/12/02 09:44:04;;;;;;;193.30;36.45;;;4.10;99.90;;;2.89;100.00;97508.28;5068897;28;20495;-70
2022/12/02 09:46:30;;;;;;;193.07;39.20;;;4.10;99.90;;;2.93;100.00;97504.28;5069726;28;20760;-70
2022/12/02 09:48:57;;;;;;;183.20;36.38;;;4.10;99.90;;;2.90;100.00;97496.81;5047956;28;20545;-71
2022/12/02 09:51:23;;;;;;;196.93;38.50;;;4.10;99.90;;;2.91;100.00;97501.06;5069867;28;20488;-71
2022/12/02 09:53:49;;;;;;;195.35;40.08;;;4.10;99.90;;;2.91;100.00;97499.25;5054664;28;20484;-71
2022/12/02 09:56:20;;;;;;;190.00;36.78;;;4.10;99.90;;;2.90;100.00;97495.00;5049697;28;20413;-68
2022/12/02 09:58:48;;;;;;;188.80;36.23;;;4.10;99.90;;;2.88;100.00;97493.59;5049818;28;20422;-74
2022/12/02 10:01:15;;;;;;;194.43;36.00;;;4.10;99.90;;;2.89;100.00;97489.97;5049708;28;20466;-75
2022/12/02 10:03:43;;;;;;;146.75;30.45;;;4.10;99.90;;;2.90;100.00;97492.41;5048863;28;20806;-71
2022/12/02 10:06:22;;;;;;;187.55;34.50;;;4.10;99.90;;;2.91;100.00;97485.38;5050876;28;20452;-70
2022/12/02 10:08:48;;;;;;;151.27;30.83;;;4.10;99.90;;;2.91;100.00;97488.78;5053452;28;25092;-70